sensor_id;sensor_type;location;lat;lon;timestamp;P1;durP1;ratioP1;P2;durP2;ratioP2
78891;SDS011;68368;51.728;5.248;2023-05-10T00:00:25;25.20;;;15.50;;
78891;SDS011;68368;51.728;5.248;2023-05-10T00:02:28;24.10;;;14.90;;
78891;SDS011;68368;51.728;5.248;2023-05-10T00:04:31;26.30;;;15.30;;
78891;SDS011;68368;51.728;5.248;2023-05-10T00:06:34;25.50;;;14.90;;
78891;SDS011;68368;51.728;5.248;2023-05-10T00:08:38;24.40;;;14.70;;
78891;SDS011;68368;51.728;5.248;2023-05-10T00:10:41;22.80;;;13.50;;
78891;SDS011;68368;51.728;5.248;2023-05-10T00:12:47;26.50;;;14.80;;
78891;SDS011;68368;51.728;5.248;2023-05-10T00:14:50;23.70;;;13.70;;
78891;SDS011;68368;51.728;5.248;2023-05-10T00:16:56;24.40;;;12.90;;
78891;SDS011;68368;51.728;5.248;2023-05-10T00:19:00;25.20;;;14.30;;
78891;SDS011;68368;51.728;5.248;2023-05-10T00:21:04;24.30;;;14.90;;
78891;SDS011;68368;51.728;5.248;2023-05-10T00:23:08;24.40;;;14.10;;
78891;SDS011;68368;51.728;5.248;2023-05-10T00:25:12;24.90;;;13.80;;
78891;SDS011;68368;51.728;5.248;2023-05-10T00:27:16;24.80;;;14.90;;
78891;SDS011;68368;51.728;5.248;2023-05-10T00:29:19;24.90;;;14.20;;
78891;SDS011;68368;51.728;5.248;2023-05-10T00:31:24;25.30;;;13.40;;
78891;SDS011;68368;51.728;5.248;2023-05-10T00:33:27;25.30;;;13.70;;
78891;SDS011;68368;51.728;5.248;2023-05-10T00:35:30;24.10;;;12.30;;
78891;SDS011;68368;51.728;5.248;2023-05-10T00:37:33;24.70;;;13.30;;
78891;SDS011;68368;51.728;5.248;2023-05-10T00:39:37;22.10;;;12.60;;
78891;SDS011;68368;51.728;5.248;2023-05-10T00:41:41;26.80;;;13.70;;
78891;SDS011;68368;51.728;5.248;2023-05-10T00:43:44;21.50;;;12.40;;
78891;SDS011;68368;51.728;5.248;2023-05-10T00:45:47;22.50;;;13.50;;
78891;SDS011;68368;51.728;5.248;2023-05-10T00:47:51;24.90;;;13.90;;
78891;SDS011;68368;51.728;5.248;2023-05-10T00:49:55;25.40;;;14.10;;
78891;SDS011;68368;51.728;5.248;2023-05-10T00:51:58;28.00;;;14.10;;
78891;SDS011;68368;51.728;5.248;2023-05-10T00:54:03;28.60;;;13.30;;
78891;SDS011;68368;51.728;5.248;2023-05-10T00:56:09;33.80;;;15.80;;
78891;SDS011;68368;51.728;5.248;2023-05-10T00:58:14;30.30;;;15.70;;
78891;SDS011;68368;51.728;5.248;2023-05-10T01:00:18;27.70;;;14.80;;
78891;SDS011;68368;51.728;5.248;2023-05-10T01:02:21;27.90;;;15.90;;
78891;SDS011;68368;51.728;5.248;2023-05-10T01:04:25;22.80;;;14.30;;
78891;SDS011;68368;51.728;5.248;2023-05-10T01:06:29;27.20;;;14.50;;
78891;SDS011;68368;51.728;5.248;2023-05-10T01:08:32;31.40;;;16.90;;
78891;SDS011;68368;51.728;5.248;2023-05-10T01:10:36;33.60;;;15.00;;
78891;SDS011;68368;51.728;5.248;2023-05-10T01:12:40;28.70;;;15.40;;
78891;SDS011;68368;51.728;5.248;2023-05-10T01:14:47;26.40;;;15.50;;
78891;SDS011;68368;51.728;5.248;2023-05-10T01:16:51;28.30;;;16.10;;
78891;SDS011;68368;51.728;5.248;2023-05-10T01:18:56;26.10;;;15.70;;
78891;SDS011;68368;51.728;5.248;2023-05-10T01:21:02;29.30;;;16.60;;
78891;SDS011;68368;51.728;5.248;2023-05-10T01:23:26;29.70;;;16.40;;
78891;SDS011;68368;51.728;5.248;2023-05-10T01:33:21;30.10;;;14.80;;
78891;SDS011;68368;51.728;5.248;2023-05-10T01:35:37;27.30;;;15.90;;
78891;SDS011;68368;51.728;5.248;2023-05-10T01:37:46;28.80;;;15.70;;
78891;SDS011;68368;51.728;5.248;2023-05-10T01:40:00;29.10;;;16.90;;
78891;SDS011;68368;51.728;5.248;2023-05-10T01:42:10;30.70;;;16.40;;
78891;SDS011;68368;51.728;5.248;2023-05-10T01:44:31;32.00;;;16.30;;
78891;SDS011;68368;51.728;5.248;2023-05-10T01:46:39;27.50;;;16.20;;
78891;SDS011;68368;51.728;5.248;2023-05-10T01:48:47;25.70;;;14.80;;
78891;SDS011;68368;51.728;5.248;2023-05-10T01:50:53;29.70;;;15.80;;
78891;SDS011;68368;51.728;5.248;2023-05-10T01:52:58;25.50;;;15.50;;
78891;SDS011;68368;51.728;5.248;2023-05-10T01:55:04;25.40;;;16.30;;
78891;SDS011;68368;51.728;5.248;2023-05-10T01:57:10;26.90;;;16.10;;
78891;SDS011;68368;51.728;5.248;2023-05-10T01:59:18;31.00;;;16.90;;
78891;SDS011;68368;51.728;5.248;2023-05-10T02:01:23;27.90;;;15.60;;
78891;SDS011;68368;51.728;5.248;2023-05-10T02:03:28;28.10;;;15.80;;
78891;SDS011;68368;51.728;5.248;2023-05-10T02:05:33;26.50;;;15.40;;
78891;SDS011;68368;51.728;5.248;2023-05-10T02:07:40;28.20;;;14.00;;
78891;SDS011;68368;51.728;5.248;2023-05-10T02:09:45;26.80;;;13.90;;
78891;SDS011;68368;51.728;5.248;2023-05-10T02:11:49;24.20;;;14.50;;
78891;SDS011;68368;51.728;5.248;2023-05-10T02:13:55;24.50;;;13.10;;
78891;SDS011;68368;51.728;5.248;2023-05-10T02:16:00;25.30;;;13.90;;
78891;SDS011;68368;51.728;5.248;2023-05-10T02:18:06;31.10;;;15.30;;
78891;SDS011;68368;51.728;5.248;2023-05-10T02:20:12;26.80;;;14.00;;
78891;SDS011;68368;51.728;5.248;2023-05-10T02:22:20;27.90;;;14.30;;
78891;SDS011;68368;51.728;5.248;2023-05-10T02:24:25;24.10;;;12.90;;
78891;SDS011;68368;51.728;5.248;2023-05-10T02:26:30;27.00;;;13.20;;
78891;SDS011;68368;51.728;5.248;2023-05-10T02:28:35;26.60;;;14.10;;
78891;SDS011;68368;51.728;5.248;2023-05-10T02:30:40;26.10;;;14.20;;
78891;SDS011;68368;51.728;5.248;2023-05-10T02:32:45;24.00;;;12.90;;
78891;SDS011;68368;51.728;5.248;2023-05-10T02:34:50;30.20;;;14.00;;
78891;SDS011;68368;51.728;5.248;2023-05-10T02:36:56;28.90;;;14.60;;
78891;SDS011;68368;51.728;5.248;2023-05-10T02:39:00;29.30;;;14.00;;
78891;SDS011;68368;51.728;5.248;2023-05-10T02:41:05;26.10;;;13.50;;
78891;SDS011;68368;51.728;5.248;2023-05-10T02:43:12;26.00;;;14.00;;
78891;SDS011;68368;51.728;5.248;2023-05-10T02:45:18;24.00;;;12.80;;
78891;SDS011;68368;51.728;5.248;2023-05-10T02:47:25;27.20;;;13.60;;
78891;SDS011;68368;51.728;5.248;2023-05-10T02:49:28;25.30;;;13.20;;
78891;SDS011;68368;51.728;5.248;2023-05-10T02:51:35;27.10;;;14.30;;
78891;SDS011;68368;51.728;5.248;2023-05-10T02:53:53;31.00;;;15.20;;
78891;SDS011;68368;51.728;5.248;2023-05-10T02:55:59;29.70;;;15.50;;
78891;SDS011;68368;51.728;5.248;2023-05-10T02:58:06;31.20;;;16.50;;
78891;SDS011;68368;51.728;5.248;2023-05-10T03:00:14;28.10;;;15.60;;
78891;SDS011;68368;51.728;5.248;2023-05-10T03:02:19;27.20;;;15.50;;
78891;SDS011;68368;51.728;5.248;2023-05-10T03:04:23;28.70;;;16.60;;
78891;SDS011;68368;51.728;5.248;2023-05-10T03:06:27;30.20;;;17.70;;
78891;SDS011;68368;51.728;5.248;2023-05-10T03:08:30;34.00;;;17.10;;
78891;SDS011;68368;51.728;5.248;2023-05-10T03:10:36;32.00;;;16.90;;
78891;SDS011;68368;51.728;5.248;2023-05-10T03:12:47;28.80;;;16.00;;
78891;SDS011;68368;51.728;5.248;2023-05-10T03:15:06;31.10;;;17.30;;
78891;SDS011;68368;51.728;5.248;2023-05-10T03:17:18;29.30;;;16.00;;
78891;SDS011;68368;51.728;5.248;2023-05-10T03:19:26;29.40;;;17.00;;
78891;SDS011;68368;51.728;5.248;2023-05-10T03:21:37;28.70;;;15.70;;
78891;SDS011;68368;51.728;5.248;2023-05-10T03:23:51;29.70;;;17.00;;
78891;SDS011;68368;51.728;5.248;2023-05-10T03:25:59;29.00;;;17.10;;
78891;SDS011;68368;51.728;5.248;2023-05-10T03:28:03;30.30;;;18.20;;
78891;SDS011;68368;51.728;5.248;2023-05-10T03:30:10;32.30;;;18.60;;
78891;SDS011;68368;51.728;5.248;2023-05-10T03:32:14;34.80;;;18.70;;
78891;SDS011;68368;51.728;5.248;2023-05-10T03:34:17;29.60;;;17.80;;
78891;SDS011;68368;51.728;5.248;2023-05-10T03:36:26;33.10;;;18.20;;
78891;SDS011;68368;51.728;5.248;2023-05-10T03:38:29;32.10;;;17.80;;
78891;SDS011;68368;51.728;5.248;2023-05-10T03:40:33;30.60;;;18.40;;
78891;SDS011;68368;51.728;5.248;2023-05-10T03:42:36;31.00;;;19.40;;
78891;SDS011;68368;51.728;5.248;2023-05-10T03:44:40;33.10;;;19.30;;
78891;SDS011;68368;51.728;5.248;2023-05-10T03:46:47;31.60;;;18.60;;
78891;SDS011;68368;51.728;5.248;2023-05-10T03:48:50;31.60;;;18.80;;
78891;SDS011;68368;51.728;5.248;2023-05-10T03:50:53;30.40;;;18.40;;
78891;SDS011;68368;51.728;5.248;2023-05-10T03:52:56;29.60;;;17.80;;
78891;SDS011;68368;51.728;5.248;2023-05-10T03:54:59;31.20;;;17.90;;
78891;SDS011;68368;51.728;5.248;2023-05-10T03:57:04;32.10;;;18.50;;
78891;SDS011;68368;51.728;5.248;2023-05-10T03:59:08;28.60;;;18.30;;
78891;SDS011;68368;51.728;5.248;2023-05-10T04:01:11;30.80;;;17.90;;
78891;SDS011;68368;51.728;5.248;2023-05-10T04:03:14;34.50;;;19.00;;
78891;SDS011;68368;51.728;5.248;2023-05-10T04:05:18;34.80;;;19.00;;
78891;SDS011;68368;51.728;5.248;2023-05-10T04:07:22;36.30;;;19.40;;
78891;SDS011;68368;51.728;5.248;2023-05-10T04:09:25;33.80;;;19.10;;
78891;SDS011;68368;51.728;5.248;2023-05-10T04:11:28;33.70;;;19.60;;
78891;SDS011;68368;51.728;5.248;2023-05-10T04:13:32;35.10;;;20.50;;
78891;SDS011;68368;51.728;5.248;2023-05-10T04:15:36;32.30;;;19.20;;
78891;SDS011;68368;51.728;5.248;2023-05-10T04:17:39;36.00;;;18.80;;
78891;SDS011;68368;51.728;5.248;2023-05-10T04:19:42;39.40;;;20.70;;
78891;SDS011;68368;51.728;5.248;2023-05-10T04:21:46;35.90;;;18.70;;
78891;SDS011;68368;51.728;5.248;2023-05-10T04:23:49;40.80;;;22.20;;
78891;SDS011;68368;51.728;5.248;2023-05-10T04:25:52;41.80;;;20.30;;
78891;SDS011;68368;51.728;5.248;2023-05-10T04:28:00;41.80;;;22.80;;
78891;SDS011;68368;51.728;5.248;2023-05-10T04:30:06;41.50;;;20.60;;
78891;SDS011;68368;51.728;5.248;2023-05-10T04:32:11;40.30;;;22.40;;
78891;SDS011;68368;51.728;5.248;2023-05-10T04:34:15;33.40;;;19.30;;
78891;SDS011;68368;51.728;5.248;2023-05-10T04:36:21;34.70;;;20.10;;
78891;SDS011;68368;51.728;5.248;2023-05-10T04:38:25;37.70;;;21.30;;
78891;SDS011;68368;51.728;5.248;2023-05-10T04:40:28;37.30;;;20.50;;
78891;SDS011;68368;51.728;5.248;2023-05-10T04:42:32;39.10;;;22.20;;
78891;SDS011;68368;51.728;5.248;2023-05-10T04:44:36;38.00;;;22.00;;
78891;SDS011;68368;51.728;5.248;2023-05-10T04:46:40;40.80;;;22.70;;
78891;SDS011;68368;51.728;5.248;2023-05-10T04:48:43;41.00;;;22.10;;
78891;SDS011;68368;51.728;5.248;2023-05-10T04:50:46;44.70;;;21.50;;
78891;SDS011;68368;51.728;5.248;2023-05-10T04:52:49;41.40;;;21.90;;
78891;SDS011;68368;51.728;5.248;2023-05-10T04:54:53;41.30;;;22.50;;
78891;SDS011;68368;51.728;5.248;2023-05-10T04:56:57;39.00;;;21.40;;
78891;SDS011;68368;51.728;5.248;2023-05-10T04:59:00;38.60;;;20.50;;
78891;SDS011;68368;51.728;5.248;2023-05-10T05:01:15;37.80;;;22.10;;
78891;SDS011;68368;51.728;5.248;2023-05-10T05:03:19;41.90;;;21.80;;
78891;SDS011;68368;51.728;5.248;2023-05-10T05:05:22;38.30;;;20.20;;
78891;SDS011;68368;51.728;5.248;2023-05-10T05:07:25;40.60;;;21.90;;
78891;SDS011;68368;51.728;5.248;2023-05-10T05:09:31;38.20;;;22.30;;
78891;SDS011;68368;51.728;5.248;2023-05-10T05:11:35;40.20;;;21.00;;
78891;SDS011;68368;51.728;5.248;2023-05-10T05:13:38;39.70;;;20.50;;
78891;SDS011;68368;51.728;5.248;2023-05-10T05:15:42;34.10;;;19.90;;
78891;SDS011;68368;51.728;5.248;2023-05-10T05:17:46;30.10;;;17.60;;
78891;SDS011;68368;51.728;5.248;2023-05-10T05:19:49;31.30;;;18.90;;
78891;SDS011;68368;51.728;5.248;2023-05-10T05:21:55;33.20;;;18.70;;
78891;SDS011;68368;51.728;5.248;2023-05-10T05:23:58;36.10;;;19.80;;
78891;SDS011;68368;51.728;5.248;2023-05-10T05:26:05;34.60;;;19.60;;
78891;SDS011;68368;51.728;5.248;2023-05-10T05:28:09;33.30;;;19.10;;
78891;SDS011;68368;51.728;5.248;2023-05-10T05:30:12;32.20;;;16.40;;
78891;SDS011;68368;51.728;5.248;2023-05-10T05:32:16;31.00;;;17.70;;
78891;SDS011;68368;51.728;5.248;2023-05-10T05:34:19;33.00;;;17.60;;
78891;SDS011;68368;51.728;5.248;2023-05-10T05:36:22;31.00;;;17.50;;
78891;SDS011;68368;51.728;5.248;2023-05-10T05:38:26;30.30;;;18.10;;
78891;SDS011;68368;51.728;5.248;2023-05-10T05:40:29;27.10;;;16.50;;
78891;SDS011;68368;51.728;5.248;2023-05-10T05:42:33;30.10;;;17.50;;
78891;SDS011;68368;51.728;5.248;2023-05-10T05:44:36;34.60;;;17.60;;
78891;SDS011;68368;51.728;5.248;2023-05-10T05:46:40;28.70;;;16.30;;
78891;SDS011;68368;51.728;5.248;2023-05-10T05:48:43;30.10;;;16.70;;
78891;SDS011;68368;51.728;5.248;2023-05-10T05:50:48;28.20;;;17.40;;
78891;SDS011;68368;51.728;5.248;2023-05-10T05:52:55;28.10;;;15.40;;
78891;SDS011;68368;51.728;5.248;2023-05-10T05:54:58;29.30;;;16.90;;
78891;SDS011;68368;51.728;5.248;2023-05-10T05:57:01;27.90;;;16.50;;
78891;SDS011;68368;51.728;5.248;2023-05-10T05:59:05;26.40;;;15.80;;
78891;SDS011;68368;51.728;5.248;2023-05-10T06:01:08;22.60;;;12.80;;
78891;SDS011;68368;51.728;5.248;2023-05-10T06:03:11;27.40;;;15.90;;
78891;SDS011;68368;51.728;5.248;2023-05-10T06:05:14;29.00;;;16.50;;
78891;SDS011;68368;51.728;5.248;2023-05-10T06:07:19;26.00;;;14.90;;
78891;SDS011;68368;51.728;5.248;2023-05-10T06:09:22;31.60;;;16.40;;
78891;SDS011;68368;51.728;5.248;2023-05-10T06:11:26;31.80;;;17.20;;
78891;SDS011;68368;51.728;5.248;2023-05-10T06:13:30;30.30;;;16.80;;
78891;SDS011;68368;51.728;5.248;2023-05-10T06:15:35;28.60;;;15.40;;
78891;SDS011;68368;51.728;5.248;2023-05-10T06:17:38;31.20;;;16.60;;
78891;SDS011;68368;51.728;5.248;2023-05-10T06:19:42;29.00;;;16.50;;
78891;SDS011;68368;51.728;5.248;2023-05-10T06:21:47;28.90;;;17.30;;
78891;SDS011;68368;51.728;5.248;2023-05-10T06:23:50;24.40;;;16.70;;
78891;SDS011;68368;51.728;5.248;2023-05-10T06:25:54;28.40;;;16.30;;
78891;SDS011;68368;51.728;5.248;2023-05-10T06:27:57;30.80;;;19.00;;
78891;SDS011;68368;51.728;5.248;2023-05-10T06:30:01;32.10;;;19.30;;
78891;SDS011;68368;51.728;5.248;2023-05-10T06:32:05;32.20;;;18.60;;
78891;SDS011;68368;51.728;5.248;2023-05-10T06:34:08;33.60;;;20.10;;
78891;SDS011;68368;51.728;5.248;2023-05-10T06:36:12;36.00;;;21.60;;
78891;SDS011;68368;51.728;5.248;2023-05-10T06:38:15;32.70;;;19.60;;
78891;SDS011;68368;51.728;5.248;2023-05-10T06:40:20;32.80;;;18.00;;
78891;SDS011;68368;51.728;5.248;2023-05-10T06:42:24;32.00;;;19.50;;
78891;SDS011;68368;51.728;5.248;2023-05-10T06:44:27;30.50;;;19.20;;
78891;SDS011;68368;51.728;5.248;2023-05-10T06:46:30;32.50;;;19.70;;
78891;SDS011;68368;51.728;5.248;2023-05-10T06:48:34;31.50;;;19.00;;
78891;SDS011;68368;51.728;5.248;2023-05-10T06:50:38;33.50;;;18.90;;
78891;SDS011;68368;51.728;5.248;2023-05-10T06:52:41;39.60;;;21.00;;
78891;SDS011;68368;51.728;5.248;2023-05-10T06:54:44;35.60;;;21.40;;
78891;SDS011;68368;51.728;5.248;2023-05-10T06:56:48;35.90;;;21.70;;
78891;SDS011;68368;51.728;5.248;2023-05-10T06:58:51;34.00;;;21.20;;
78891;SDS011;68368;51.728;5.248;2023-05-10T07:00:55;31.90;;;18.10;;
78891;SDS011;68368;51.728;5.248;2023-05-10T07:03:05;35.50;;;18.60;;
78891;SDS011;68368;51.728;5.248;2023-05-10T07:05:09;32.30;;;18.70;;
78891;SDS011;68368;51.728;5.248;2023-05-10T07:07:13;35.40;;;18.90;;
78891;SDS011;68368;51.728;5.248;2023-05-10T07:09:16;31.80;;;18.50;;
78891;SDS011;68368;51.728;5.248;2023-05-10T07:11:19;33.70;;;18.50;;
78891;SDS011;68368;51.728;5.248;2023-05-10T07:13:23;31.50;;;19.30;;
78891;SDS011;68368;51.728;5.248;2023-05-10T07:15:29;31.80;;;18.30;;
78891;SDS011;68368;51.728;5.248;2023-05-10T07:17:32;31.40;;;16.70;;
78891;SDS011;68368;51.728;5.248;2023-05-10T07:19:36;30.20;;;17.70;;
78891;SDS011;68368;51.728;5.248;2023-05-10T07:21:39;28.80;;;17.30;;
78891;SDS011;68368;51.728;5.248;2023-05-10T07:23:42;27.30;;;16.60;;
78891;SDS011;68368;51.728;5.248;2023-05-10T07:25:46;29.40;;;16.60;;
78891;SDS011;68368;51.728;5.248;2023-05-10T07:27:50;28.40;;;16.10;;
78891;SDS011;68368;51.728;5.248;2023-05-10T07:29:53;27.60;;;15.90;;
78891;SDS011;68368;51.728;5.248;2023-05-10T07:31:56;28.80;;;17.80;;
78891;SDS011;68368;51.728;5.248;2023-05-10T07:34:00;32.40;;;19.00;;
78891;SDS011;68368;51.728;5.248;2023-05-10T07:36:04;27.70;;;15.70;;
78891;SDS011;68368;51.728;5.248;2023-05-10T07:38:09;28.00;;;17.10;;
78891;SDS011;68368;51.728;5.248;2023-05-10T07:40:12;28.50;;;15.70;;
78891;SDS011;68368;51.728;5.248;2023-05-10T07:44:22;29.10;;;16.50;;
78891;SDS011;68368;51.728;5.248;2023-05-10T07:46:28;30.10;;;19.70;;
78891;SDS011;68368;51.728;5.248;2023-05-10T07:48:32;31.30;;;19.10;;
78891;SDS011;68368;51.728;5.248;2023-05-10T07:50:38;30.20;;;19.00;;
78891;SDS011;68368;51.728;5.248;2023-05-10T07:52:41;30.00;;;18.80;;
78891;SDS011;68368;51.728;5.248;2023-05-10T07:54:44;30.10;;;18.60;;
78891;SDS011;68368;51.728;5.248;2023-05-10T07:56:47;27.20;;;18.30;;
78891;SDS011;68368;51.728;5.248;2023-05-10T07:58:52;30.60;;;20.40;;
78891;SDS011;68368;51.728;5.248;2023-05-10T08:00:55;30.50;;;19.30;;
78891;SDS011;68368;51.728;5.248;2023-05-10T08:03:00;30.00;;;18.90;;
78891;SDS011;68368;51.728;5.248;2023-05-10T08:05:04;27.60;;;18.20;;
78891;SDS011;68368;51.728;5.248;2023-05-10T08:07:12;25.80;;;17.30;;
78891;SDS011;68368;51.728;5.248;2023-05-10T08:09:15;30.90;;;18.80;;
78891;SDS011;68368;51.728;5.248;2023-05-10T08:11:18;26.00;;;18.00;;
78891;SDS011;68368;51.728;5.248;2023-05-10T08:13:22;27.50;;;19.70;;
78891;SDS011;68368;51.728;5.248;2023-05-10T08:15:25;25.30;;;17.40;;
78891;SDS011;68368;51.728;5.248;2023-05-10T08:17:30;27.60;;;18.10;;
78891;SDS011;68368;51.728;5.248;2023-05-10T08:19:34;27.40;;;19.30;;
78891;SDS011;68368;51.728;5.248;2023-05-10T08:21:38;26.20;;;16.90;;
78891;SDS011;68368;51.728;5.248;2023-05-10T08:23:46;23.50;;;16.00;;
78891;SDS011;68368;51.728;5.248;2023-05-10T08:25:50;22.10;;;15.20;;
78891;SDS011;68368;51.728;5.248;2023-05-10T08:27:56;19.50;;;12.80;;
78891;SDS011;68368;51.728;5.248;2023-05-10T08:29:59;19.60;;;13.40;;
78891;SDS011;68368;51.728;5.248;2023-05-10T08:32:02;18.20;;;9.10;;
78891;SDS011;68368;51.728;5.248;2023-05-10T08:34:07;16.60;;;12.20;;
78891;SDS011;68368;51.728;5.248;2023-05-10T08:36:11;13.10;;;8.90;;
78891;SDS011;68368;51.728;5.248;2023-05-10T08:38:14;15.70;;;10.70;;
78891;SDS011;68368;51.728;5.248;2023-05-10T08:40:18;14.90;;;10.50;;
78891;SDS011;68368;51.728;5.248;2023-05-10T08:42:22;13.30;;;9.60;;
78891;SDS011;68368;51.728;5.248;2023-05-10T08:44:29;13.00;;;8.80;;
78891;SDS011;68368;51.728;5.248;2023-05-10T08:46:35;13.90;;;9.10;;
78891;SDS011;68368;51.728;5.248;2023-05-10T08:48:42;12.90;;;8.40;;
78891;SDS011;68368;51.728;5.248;2023-05-10T08:50:46;15.20;;;10.40;;
78891;SDS011;68368;51.728;5.248;2023-05-10T08:52:54;14.80;;;9.70;;
78891;SDS011;68368;51.728;5.248;2023-05-10T08:55:00;10.30;;;7.30;;
78891;SDS011;68368;51.728;5.248;2023-05-10T08:57:12;15.00;;;8.50;;
78891;SDS011;68368;51.728;5.248;2023-05-10T08:59:16;11.70;;;7.90;;
78891;SDS011;68368;51.728;5.248;2023-05-10T09:01:19;11.90;;;7.40;;
78891;SDS011;68368;51.728;5.248;2023-05-10T09:03:24;13.60;;;8.10;;
78891;SDS011;68368;51.728;5.248;2023-05-10T09:05:27;12.90;;;8.90;;
78891;SDS011;68368;51.728;5.248;2023-05-10T09:07:31;14.30;;;7.80;;
78891;SDS011;68368;51.728;5.248;2023-05-10T09:09:34;13.60;;;8.50;;
78891;SDS011;68368;51.728;5.248;2023-05-10T09:11:39;10.90;;;7.80;;
78891;SDS011;68368;51.728;5.248;2023-05-10T09:13:42;15.00;;;9.50;;
78891;SDS011;68368;51.728;5.248;2023-05-10T09:15:46;10.90;;;6.70;;
78891;SDS011;68368;51.728;5.248;2023-05-10T09:17:50;11.00;;;8.50;;
78891;SDS011;68368;51.728;5.248;2023-05-10T09:19:58;11.90;;;7.60;;
78891;SDS011;68368;51.728;5.248;2023-05-10T09:22:01;13.20;;;8.30;;
78891;SDS011;68368;51.728;5.248;2023-05-10T09:24:05;11.40;;;8.50;;
78891;SDS011;68368;51.728;5.248;2023-05-10T09:26:09;11.30;;;7.40;;
78891;SDS011;68368;51.728;5.248;2023-05-10T09:28:13;10.10;;;6.20;;
78891;SDS011;68368;51.728;5.248;2023-05-10T09:30:17;5.90;;;4.40;;
78891;SDS011;68368;51.728;5.248;2023-05-10T09:32:36;7.80;;;5.70;;
78891;SDS011;68368;51.728;5.248;2023-05-10T09:34:45;7.40;;;4.80;;
78891;SDS011;68368;51.728;5.248;2023-05-10T09:36:55;7.60;;;5.40;;
78891;SDS011;68368;51.728;5.248;2023-05-10T09:39:00;9.40;;;6.20;;
78891;SDS011;68368;51.728;5.248;2023-05-10T09:41:03;9.80;;;6.70;;
78891;SDS011;68368;51.728;5.248;2023-05-10T09:43:16;10.10;;;7.30;;
78891;SDS011;68368;51.728;5.248;2023-05-10T09:45:19;10.90;;;7.80;;
78891;SDS011;68368;51.728;5.248;2023-05-10T09:47:24;13.50;;;8.40;;
78891;SDS011;68368;51.728;5.248;2023-05-10T09:49:28;11.60;;;8.60;;
78891;SDS011;68368;51.728;5.248;2023-05-10T09:51:31;8.70;;;6.40;;
78891;SDS011;68368;51.728;5.248;2023-05-10T09:53:36;8.60;;;6.10;;
78891;SDS011;68368;51.728;5.248;2023-05-10T09:55:40;7.10;;;4.50;;
78891;SDS011;68368;51.728;5.248;2023-05-10T09:57:44;6.60;;;4.20;;
78891;SDS011;68368;51.728;5.248;2023-05-10T09:59:48;5.20;;;4.20;;
78891;SDS011;68368;51.728;5.248;2023-05-10T10:01:52;4.80;;;3.70;;
78891;SDS011;68368;51.728;5.248;2023-05-10T10:03:57;8.10;;;5.00;;
78891;SDS011;68368;51.728;5.248;2023-05-10T10:06:03;6.20;;;4.40;;
78891;SDS011;68368;51.728;5.248;2023-05-10T10:08:10;7.70;;;5.10;;
78891;SDS011;68368;51.728;5.248;2023-05-10T10:10:17;9.30;;;5.10;;
78891;SDS011;68368;51.728;5.248;2023-05-10T10:12:21;7.00;;;4.90;;
78891;SDS011;68368;51.728;5.248;2023-05-10T10:14:25;8.10;;;5.50;;
78891;SDS011;68368;51.728;5.248;2023-05-10T10:16:28;7.40;;;5.60;;
78891;SDS011;68368;51.728;5.248;2023-05-10T10:18:32;8.90;;;5.30;;
78891;SDS011;68368;51.728;5.248;2023-05-10T10:20:37;10.00;;;5.90;;
78891;SDS011;68368;51.728;5.248;2023-05-10T10:22:41;11.20;;;7.00;;
78891;SDS011;68368;51.728;5.248;2023-05-10T10:24:45;9.80;;;5.50;;
78891;SDS011;68368;51.728;5.248;2023-05-10T10:26:50;8.50;;;6.00;;
78891;SDS011;68368;51.728;5.248;2023-05-10T10:29:00;7.60;;;5.60;;
78891;SDS011;68368;51.728;5.248;2023-05-10T10:31:16;9.60;;;6.70;;
78891;SDS011;68368;51.728;5.248;2023-05-10T10:33:36;8.10;;;6.40;;
78891;SDS011;68368;51.728;5.248;2023-05-10T10:35:53;7.90;;;5.90;;
78891;SDS011;68368;51.728;5.248;2023-05-10T10:37:59;11.50;;;6.60;;
78891;SDS011;68368;51.728;5.248;2023-05-10T10:40:08;8.50;;;5.90;;
78891;SDS011;68368;51.728;5.248;2023-05-10T10:44:48;8.30;;;6.10;;
78891;SDS011;68368;51.728;5.248;2023-05-10T10:47:22;10.40;;;7.60;;
78891;SDS011;68368;51.728;5.248;2023-05-10T10:49:25;12.00;;;7.40;;
78891;SDS011;68368;51.728;5.248;2023-05-10T10:51:29;8.60;;;6.10;;
78891;SDS011;68368;51.728;5.248;2023-05-10T10:53:32;8.00;;;6.10;;
78891;SDS011;68368;51.728;5.248;2023-05-10T10:55:37;10.80;;;7.00;;
78891;SDS011;68368;51.728;5.248;2023-05-10T10:57:50;10.40;;;7.50;;
78891;SDS011;68368;51.728;5.248;2023-05-10T11:02:10;8.20;;;5.80;;
78891;SDS011;68368;51.728;5.248;2023-05-10T11:04:46;8.70;;;5.80;;
78891;SDS011;68368;51.728;5.248;2023-05-10T11:06:49;7.60;;;5.40;;
78891;SDS011;68368;51.728;5.248;2023-05-10T11:09:13;8.10;;;5.90;;
78891;SDS011;68368;51.728;5.248;2023-05-10T11:11:16;7.70;;;5.60;;
78891;SDS011;68368;51.728;5.248;2023-05-10T11:13:28;8.80;;;6.00;;
78891;SDS011;68368;51.728;5.248;2023-05-10T11:15:32;11.20;;;7.30;;
78891;SDS011;68368;51.728;5.248;2023-05-10T11:17:37;8.50;;;5.40;;
78891;SDS011;68368;51.728;5.248;2023-05-10T11:19:53;10.70;;;6.50;;
78891;SDS011;68368;51.728;5.248;2023-05-10T11:22:17;8.80;;;6.70;;
78891;SDS011;68368;51.728;5.248;2023-05-10T11:24:20;9.60;;;5.80;;
78891;SDS011;68368;51.728;5.248;2023-05-10T11:26:24;8.80;;;6.60;;
78891;SDS011;68368;51.728;5.248;2023-05-10T11:28:32;10.50;;;6.90;;
78891;SDS011;68368;51.728;5.248;2023-05-10T11:30:39;8.90;;;7.00;;
78891;SDS011;68368;51.728;5.248;2023-05-10T11:32:43;9.40;;;6.00;;
78891;SDS011;68368;51.728;5.248;2023-05-10T11:34:48;9.60;;;6.80;;
78891;SDS011;68368;51.728;5.248;2023-05-10T11:36:52;8.90;;;6.60;;
78891;SDS011;68368;51.728;5.248;2023-05-10T11:38:56;6.90;;;5.50;;
78891;SDS011;68368;51.728;5.248;2023-05-10T11:40:59;9.50;;;7.50;;
78891;SDS011;68368;51.728;5.248;2023-05-10T11:43:03;7.60;;;5.90;;
78891;SDS011;68368;51.728;5.248;2023-05-10T11:45:08;7.50;;;6.20;;
78891;SDS011;68368;51.728;5.248;2023-05-10T11:47:12;6.40;;;5.30;;
78891;SDS011;68368;51.728;5.248;2023-05-10T11:49:15;9.40;;;6.50;;
78891;SDS011;68368;51.728;5.248;2023-05-10T11:51:22;9.00;;;6.20;;
78891;SDS011;68368;51.728;5.248;2023-05-10T11:53:27;8.40;;;5.40;;
78891;SDS011;68368;51.728;5.248;2023-05-10T11:55:30;7.40;;;5.50;;
78891;SDS011;68368;51.728;5.248;2023-05-10T11:57:36;6.40;;;5.60;;
78891;SDS011;68368;51.728;5.248;2023-05-10T11:59:39;6.40;;;5.20;;
78891;SDS011;68368;51.728;5.248;2023-05-10T12:01:43;6.50;;;5.30;;
78891;SDS011;68368;51.728;5.248;2023-05-10T12:03:46;5.60;;;4.90;;
78891;SDS011;68368;51.728;5.248;2023-05-10T12:05:51;7.50;;;4.90;;
78891;SDS011;68368;51.728;5.248;2023-05-10T12:07:58;6.60;;;4.80;;
78891;SDS011;68368;51.728;5.248;2023-05-10T12:10:13;6.40;;;4.90;;
78891;SDS011;68368;51.728;5.248;2023-05-10T12:12:17;5.50;;;4.50;;
78891;SDS011;68368;51.728;5.248;2023-05-10T12:14:20;5.60;;;3.70;;
78891;SDS011;68368;51.728;5.248;2023-05-10T12:16:24;7.90;;;5.10;;
78891;SDS011;68368;51.728;5.248;2023-05-10T12:18:30;6.00;;;3.80;;
78891;SDS011;68368;51.728;5.248;2023-05-10T12:20:33;7.00;;;4.30;;
78891;SDS011;68368;51.728;5.248;2023-05-10T12:22:37;6.50;;;3.60;;
78891;SDS011;68368;51.728;5.248;2023-05-10T12:24:40;8.90;;;3.70;;
78891;SDS011;68368;51.728;5.248;2023-05-10T12:26:46;5.10;;;4.10;;
78891;SDS011;68368;51.728;5.248;2023-05-10T12:28:49;5.90;;;4.50;;
78891;SDS011;68368;51.728;5.248;2023-05-10T12:30:54;9.60;;;4.20;;
78891;SDS011;68368;51.728;5.248;2023-05-10T12:33:00;3.90;;;3.20;;